createdAt,value
2023-04-15T00:00:59.359Z,36.75
2023-04-15T00:03:28.022Z,36.25
2023-04-15T00:05:56.526Z,35.50
2023-04-15T00:08:24.906Z,34.75
2023-04-15T00:10:53.270Z,37.25
2023-04-15T00:13:23.429Z,36.00
2023-04-15T00:15:51.770Z,35.00
2023-04-15T00:18:20.122Z,37.50
2023-04-15T00:20:48.751Z,36.75
2023-04-15T00:23:17.200Z,35.75
2023-04-15T00:25:45.833Z,38.00
2023-04-15T00:28:14.717Z,38.25
2023-04-15T00:30:43.259Z,36.50
2023-04-15T00:33:12.013Z,40.50
2023-04-15T00:35:40.509Z,40.75
2023-04-15T00:38:12.498Z,40.75
2023-04-15T00:40:40.932Z,38.75
2023-04-15T00:43:09.356Z,40.75
2023-04-15T00:45:38.336Z,39.25
2023-04-15T00:48:07.284Z,41.00
2023-04-15T00:50:35.760Z,36.00
2023-04-15T00:53:04.164Z,38.75
2023-04-15T00:55:32.768Z,38.25
2023-04-15T00:58:01.163Z,41.00
2023-04-15T01:00:30.014Z,39.00
2023-04-15T01:02:59.089Z,42.50
2023-04-15T01:05:28.041Z,37.25
2023-04-15T01:07:57.289Z,39.75
2023-04-15T01:10:25.765Z,40.50
2023-04-15T01:12:54.279Z,41.50
2023-04-15T01:15:22.862Z,42.25
2023-04-15T01:17:51.751Z,41.25
2023-04-15T01:20:21.284Z,41.25
2023-04-15T01:22:50.647Z,40.25
2023-04-15T01:25:34.319Z,39.00
2023-04-15T01:28:03.252Z,40.50
2023-04-15T01:30:35.789Z,39.75
2023-04-15T01:33:04.531Z,41.00
2023-04-15T01:35:33.214Z,39.00
2023-04-15T01:38:09.399Z,41.00
2023-04-15T01:40:38.059Z,40.00
2023-04-15T01:43:06.431Z,40.50
2023-04-15T01:45:34.821Z,40.00
2023-04-15T01:48:03.191Z,40.25
2023-04-15T01:50:32.035Z,40.00
2023-04-15T01:53:00.419Z,40.00
2023-04-15T01:55:28.791Z,40.75
2023-04-15T01:57:57.174Z,41.50
2023-04-15T02:00:25.890Z,42.25
2023-04-15T02:02:54.905Z,41.50
2023-04-15T02:05:23.276Z,39.50
2023-04-15T02:07:51.652Z,41.75
2023-04-15T02:10:20.089Z,40.75
2023-04-15T02:12:48.568Z,42.75
2023-04-15T02:15:17.373Z,43.25
2023-04-15T02:17:46.955Z,40.75
2023-04-15T02:20:16.296Z,42.25
2023-04-15T02:22:44.880Z,43.75
2023-04-15T02:25:13.206Z,43.75
2023-04-15T02:27:41.615Z,41.75
2023-04-15T02:30:10.312Z,44.25
2023-04-15T02:32:39.144Z,42.75
2023-04-15T02:35:09.032Z,40.75
2023-04-15T02:37:44.349Z,39.25
2023-04-15T02:40:14.066Z,42.25
2023-04-15T02:42:43.774Z,42.50
2023-04-15T02:45:13.613Z,43.00
2023-04-15T02:47:42.510Z,41.75
2023-04-15T02:50:13.496Z,40.00
2023-04-15T02:52:43.217Z,39.75
2023-04-15T02:55:12.044Z,43.25
2023-04-15T02:57:41.672Z,42.75
2023-04-15T03:00:12.572Z,42.00
2023-04-15T03:02:42.002Z,43.75
2023-04-15T03:05:14.865Z,43.50
2023-04-15T03:07:43.253Z,40.50
2023-04-15T03:10:12.492Z,41.50
2023-04-15T03:12:41.692Z,43.25
2023-04-15T03:15:11.041Z,41.75
2023-04-15T03:17:39.673Z,41.75
2023-04-15T03:20:08.830Z,39.50
2023-04-15T03:22:37.278Z,40.25
2023-04-15T03:25:06.240Z,42.25
2023-04-15T03:27:34.684Z,43.75
2023-04-15T03:30:03.045Z,41.25
2023-04-15T03:32:31.787Z,41.75
2023-04-15T03:35:00.171Z,42.25
2023-04-15T03:37:28.601Z,43.25
2023-04-15T03:39:56.945Z,41.25
2023-04-15T03:42:25.304Z,41.00
2023-04-15T03:44:53.829Z,41.75
2023-04-15T03:47:22.523Z,44.25
2023-04-15T03:49:50.984Z,39.25
2023-04-15T03:52:19.356Z,41.00
2023-04-15T03:54:47.678Z,41.25
2023-04-15T03:57:16.090Z,44.25
2023-04-15T03:59:44.822Z,40.50
2023-04-15T04:02:13.236Z,44.00
2023-04-15T04:04:41.682Z,41.50
2023-04-15T04:07:10.097Z,44.25
2023-04-15T04:09:40.134Z,43.00
2023-04-15T04:12:08.522Z,38.50
2023-04-15T04:14:36.972Z,41.00
2023-04-15T04:17:05.442Z,38.25
2023-04-15T04:19:33.918Z,40.25
2023-04-15T04:22:03.255Z,41.25
2023-04-15T04:24:31.822Z,42.50
2023-04-15T04:27:00.197Z,42.25
2023-04-15T04:29:28.545Z,40.50
2023-04-15T04:31:56.918Z,41.75
2023-04-15T04:34:25.409Z,39.75
2023-04-15T04:36:53.760Z,41.00
2023-04-15T04:39:22.085Z,40.50
2023-04-15T04:41:51.111Z,40.75
2023-04-15T04:44:19.694Z,38.25
2023-04-15T04:46:48.095Z,40.00
2023-04-15T04:49:16.501Z,40.25
2023-04-15T04:51:44.949Z,38.75
2023-04-15T04:54:13.374Z,37.25
2023-04-15T04:56:41.975Z,39.75
2023-04-15T04:59:10.421Z,39.50
2023-04-15T05:01:38.834Z,38.50
2023-04-15T05:04:08.612Z,44.00
2023-04-15T05:06:37.784Z,40.75
2023-04-15T05:09:06.109Z,39.00
2023-04-15T05:11:34.832Z,39.25
2023-04-15T05:14:03.295Z,40.50
2023-04-15T05:16:31.850Z,39.75
2023-04-15T05:19:00.567Z,39.75
2023-04-15T05:21:29.223Z,38.00
2023-04-15T05:23:57.615Z,40.00
2023-04-15T05:26:34.794Z,39.50
2023-04-15T05:29:03.242Z,40.75
2023-04-15T05:31:31.699Z,39.50
2023-04-15T05:34:00.167Z,37.50
2023-04-15T05:36:29.937Z,38.00
2023-04-15T05:38:58.264Z,40.25
2023-04-15T05:41:26.648Z,41.25
2023-04-15T05:43:54.983Z,39.25
2023-04-15T05:46:23.792Z,39.50
2023-04-15T05:48:54.240Z,39.75
2023-04-15T05:51:23.224Z,39.75
2023-04-15T05:53:51.551Z,37.50
2023-04-15T05:56:21.303Z,38.75
2023-04-15T05:58:50.512Z,37.00
2023-04-15T06:01:19.878Z,37.75
2023-04-15T06:03:48.349Z,41.75
2023-04-15T06:06:16.734Z,37.75
2023-04-15T06:08:45.101Z,40.75
2023-04-15T06:11:13.437Z,39.25
2023-04-15T06:13:41.916Z,38.50
2023-04-15T06:16:10.318Z,37.00
2023-04-15T06:18:38.669Z,36.00
2023-04-15T06:21:07.132Z,38.50
2023-04-15T06:23:38.780Z,38.00
2023-04-15T06:26:07.261Z,36.50
2023-04-15T06:28:35.720Z,39.00
2023-04-15T06:31:04.320Z,38.50
2023-04-15T06:33:33.405Z,37.50
2023-04-15T06:36:01.857Z,40.00
2023-04-15T06:38:30.198Z,39.50
2023-04-15T06:40:58.600Z,38.75
2023-04-15T06:43:26.995Z,35.75
2023-04-15T06:45:55.441Z,39.00
2023-04-15T06:48:24.231Z,41.00
2023-04-15T06:50:53.778Z,36.25
2023-04-15T06:53:23.046Z,37.75
2023-04-15T06:55:51.400Z,37.00
2023-04-15T06:58:19.742Z,37.25
2023-04-15T07:00:48.897Z,38.75
2023-04-15T07:03:17.463Z,36.75
2023-04-15T07:05:45.865Z,38.00
2023-04-15T07:08:15.019Z,39.50
2023-04-15T07:10:43.401Z,40.50
2023-04-15T07:13:12.338Z,40.25
2023-04-15T07:15:40.737Z,38.25
2023-04-15T07:18:09.091Z,37.75
2023-04-15T07:20:37.675Z,36.75
2023-04-15T07:23:06.002Z,38.25
2023-04-15T07:25:34.348Z,35.25
2023-04-15T07:28:03.495Z,36.25
2023-04-15T07:30:31.887Z,36.50
2023-04-15T07:33:00.609Z,38.25
2023-04-15T07:35:30.271Z,34.75
2023-04-15T07:37:58.733Z,37.50
2023-04-15T07:40:27.556Z,36.00
2023-04-15T07:42:58.198Z,38.25
2023-04-15T07:45:26.552Z,39.00
2023-04-15T07:47:54.982Z,35.25
2023-04-15T07:50:24.222Z,35.50
2023-04-15T07:52:53.377Z,38.00
2023-04-15T07:55:23.854Z,34.50
2023-04-15T07:57:52.657Z,37.00
2023-04-15T08:00:21.145Z,36.00
2023-04-15T08:02:50.812Z,33.75
2023-04-15T08:05:19.311Z,34.00
2023-04-15T08:07:47.850Z,33.75
2023-04-15T08:10:16.293Z,34.50
2023-04-15T08:12:44.754Z,37.75
2023-04-15T08:15:14.083Z,36.25
2023-04-15T08:17:42.604Z,36.25
2023-04-15T08:20:11.287Z,34.50
2023-04-15T08:22:39.742Z,36.75
2023-04-15T08:25:08.473Z,35.50
2023-04-15T08:27:37.224Z,36.00
2023-04-15T08:30:06.090Z,32.75
2023-04-15T08:32:34.501Z,34.50
2023-04-15T08:35:03.080Z,32.75
2023-04-15T08:37:31.492Z,34.50
2023-04-15T08:39:59.827Z,34.00
2023-04-15T08:42:50.997Z,33.25
2023-04-15T08:45:20.312Z,33.75
2023-04-15T08:47:53.844Z,36.75
2023-04-15T08:50:23.776Z,31.75
2023-04-15T08:52:56.423Z,33.50
2023-04-15T08:55:26.419Z,34.50
2023-04-15T08:57:54.784Z,34.50
2023-04-15T09:00:24.406Z,35.25
2023-04-15T09:02:53.555Z,34.25
2023-04-15T09:05:22.571Z,33.75
2023-04-15T09:07:52.841Z,34.25
2023-04-15T09:10:21.221Z,36.00
2023-04-15T09:12:49.581Z,35.75
2023-04-15T09:15:18.617Z,35.50
2023-04-15T09:17:47.439Z,35.75
2023-04-15T09:20:19.797Z,36.25
2023-04-15T09:22:50.086Z,33.50
2023-04-15T09:25:35.073Z,37.75
2023-04-15T09:28:04.231Z,33.25
2023-04-15T09:30:32.699Z,36.50
2023-04-15T09:33:05.841Z,36.75
2023-04-15T09:35:34.293Z,34.00
2023-04-15T09:38:08.643Z,34.00
2023-04-15T09:40:39.251Z,36.25
2023-04-15T09:43:08.599Z,35.25
2023-04-15T09:45:38.075Z,35.00
2023-04-15T09:48:32.112Z,34.00
2023-04-15T09:51:01.599Z,36.25
2023-04-15T09:53:31.812Z,35.75
2023-04-15T09:56:04.582Z,39.00
2023-04-15T09:58:35.928Z,35.50
2023-04-15T10:01:08.686Z,36.00
2023-04-15T10:03:38.535Z,33.75
2023-04-15T10:06:07.000Z,36.50
2023-04-15T10:08:36.241Z,37.00
2023-04-15T10:11:05.727Z,37.25
2023-04-15T10:13:36.041Z,36.25
2023-04-15T10:16:13.017Z,38.00
2023-04-15T10:18:45.940Z,37.25
2023-04-15T10:21:17.430Z,34.75
2023-04-15T10:23:49.226Z,37.50
2023-04-15T10:26:18.680Z,37.00
2023-04-15T10:28:50.857Z,37.50
2023-04-15T10:31:20.982Z,36.25
2023-04-15T10:33:51.081Z,35.75
2023-04-15T10:36:21.329Z,34.75
2023-04-15T10:38:50.135Z,37.50
2023-04-15T10:41:20.184Z,35.25
2023-04-15T10:43:54.613Z,35.25
2023-04-15T10:46:48.357Z,36.25
2023-04-15T10:49:19.238Z,36.50
2023-04-15T10:51:52.700Z,36.50
2023-04-15T10:54:27.064Z,36.75
2023-04-15T10:57:07.505Z,36.50
2023-04-15T11:00:00.208Z,39.00
2023-04-15T11:02:48.966Z,36.50
2023-04-15T11:05:18.773Z,37.50
2023-04-15T11:07:57.942Z,38.00
2023-04-15T11:10:32.332Z,38.00
2023-04-15T11:13:05.392Z,38.50
2023-04-15T11:15:48.244Z,38.50
2023-04-15T11:18:29.359Z,36.50
2023-04-15T11:21:03.239Z,36.00
2023-04-15T11:23:37.661Z,34.25
2023-04-15T11:26:10.568Z,39.25
2023-04-15T11:28:41.659Z,38.50
2023-04-15T11:31:12.800Z,37.50
2023-04-15T11:34:01.342Z,37.25
2023-04-15T11:36:32.881Z,35.00
2023-04-15T11:39:01.777Z,38.50
2023-04-15T11:41:30.123Z,38.50
2023-04-15T11:43:58.524Z,39.50
2023-04-15T11:46:33.139Z,40.25
2023-04-15T11:49:01.754Z,37.50
2023-04-15T11:51:35.239Z,35.75
2023-04-15T11:54:04.880Z,38.00
2023-04-15T11:56:33.412Z,37.25
2023-04-15T11:59:02.264Z,35.25
2023-04-15T12:01:37.419Z,39.25
2023-04-15T12:04:14.417Z,39.25
2023-04-15T12:06:43.132Z,35.50
2023-04-15T12:09:16.414Z,37.50
2023-04-15T12:11:49.965Z,34.50
2023-04-15T12:14:27.522Z,36.75
2023-04-15T12:16:59.637Z,36.75
2023-04-15T12:19:35.998Z,36.50
2023-04-15T12:22:11.805Z,35.50
2023-04-15T12:24:41.395Z,36.50
2023-04-15T12:27:14.404Z,36.00
2023-04-15T12:29:46.897Z,36.50
2023-04-15T12:32:17.216Z,36.25
2023-04-15T12:34:54.129Z,37.50
2023-04-15T12:37:23.096Z,38.50
2023-04-15T12:39:52.004Z,40.75
2023-04-15T12:42:20.725Z,38.75
2023-04-15T12:44:49.297Z,38.50
2023-04-15T12:47:17.829Z,40.25
2023-04-15T12:49:46.613Z,38.00
2023-04-15T12:52:15.004Z,39.50
2023-04-15T12:54:43.375Z,37.75
2023-04-15T12:57:11.735Z,36.75
2023-04-15T12:59:40.588Z,36.75
2023-04-15T13:02:09.851Z,39.75
2023-04-15T13:04:38.418Z,38.75
2023-04-15T13:07:07.227Z,37.50
2023-04-15T13:09:36.159Z,35.75
2023-04-15T13:12:06.373Z,36.50
2023-04-15T13:14:34.750Z,37.00
2023-04-15T13:17:05.131Z,37.75
2023-04-15T13:19:33.764Z,36.50
2023-04-15T13:22:02.146Z,37.00
2023-04-15T13:24:30.555Z,36.75
2023-04-15T13:27:00.159Z,36.25
2023-04-15T13:29:28.598Z,36.00
2023-04-15T13:31:57.900Z,35.75
2023-04-15T13:34:26.342Z,34.75
2023-04-15T13:36:54.706Z,37.75
2023-04-15T13:39:23.052Z,36.50
2023-04-15T13:41:51.392Z,34.00
2023-04-15T13:44:21.922Z,37.75
2023-04-15T13:46:50.645Z,36.50
2023-04-15T13:49:18.976Z,36.00
2023-04-15T13:51:47.311Z,36.75
2023-04-15T13:54:15.703Z,36.50
2023-04-15T13:56:44.169Z,32.75
2023-04-15T13:59:12.549Z,35.75
2023-04-15T14:01:42.328Z,34.75
2023-04-15T14:04:11.127Z,36.50
2023-04-15T14:06:39.714Z,35.25
2023-04-15T14:09:08.264Z,33.50
2023-04-15T14:11:37.696Z,35.50
2023-04-15T14:14:06.873Z,35.00
2023-04-15T14:16:35.794Z,33.50
2023-04-15T14:19:04.743Z,36.00
2023-04-15T14:21:33.573Z,36.50
2023-04-15T14:24:01.955Z,35.00
2023-04-15T14:26:30.338Z,33.00
2023-04-15T14:28:58.686Z,34.50
2023-04-15T14:31:27.140Z,34.75
2023-04-15T14:33:55.569Z,33.50
2023-04-15T14:36:24.317Z,34.25
2023-04-15T14:38:52.742Z,33.50
2023-04-15T14:41:21.082Z,35.50
2023-04-15T14:43:49.444Z,33.00
2023-04-15T14:46:18.037Z,34.75
2023-04-15T14:48:46.435Z,32.00
2023-04-15T14:51:14.887Z,35.00
2023-04-15T14:53:43.410Z,33.25
2023-04-15T14:56:11.760Z,33.50
2023-04-15T14:58:40.191Z,33.75
2023-04-15T15:01:08.642Z,34.25
2023-04-15T15:03:41.026Z,31.75
2023-04-15T15:06:09.957Z,33.25
2023-04-15T15:08:38.604Z,33.00
2023-04-15T15:11:07.017Z,32.25
2023-04-15T15:13:35.410Z,34.25
2023-04-15T15:16:03.977Z,33.50
2023-04-15T15:18:32.521Z,35.25
2023-04-15T15:21:00.857Z,34.25
2023-04-15T15:23:29.299Z,32.25
2023-04-15T15:25:58.408Z,33.75
2023-04-15T15:28:26.951Z,35.50
2023-04-15T15:30:55.386Z,33.00
2023-04-15T15:33:24.345Z,35.00
2023-04-15T15:35:52.827Z,33.00
2023-04-15T15:38:21.549Z,34.00
2023-04-15T15:40:49.896Z,32.25
2023-04-15T15:43:18.249Z,32.00
2023-04-15T15:45:46.722Z,33.00
2023-04-15T15:48:15.093Z,31.00
2023-04-15T15:50:43.467Z,33.00
2023-04-15T15:53:13.297Z,32.00
2023-04-15T15:55:41.686Z,32.25
2023-04-15T15:58:10.071Z,33.50
2023-04-15T16:00:38.480Z,35.00
2023-04-15T16:03:07.842Z,30.00
2023-04-15T16:05:37.493Z,33.50
2023-04-15T16:08:06.321Z,32.75
2023-04-15T16:10:34.805Z,32.00
2023-04-15T16:13:03.833Z,32.75
2023-04-15T16:15:32.267Z,32.00
2023-04-15T16:18:00.725Z,30.75
2023-04-15T16:20:32.039Z,35.00
2023-04-15T16:23:00.495Z,32.25
2023-04-15T16:25:28.914Z,29.50
2023-04-15T16:28:01.466Z,32.00
2023-04-15T16:30:40.461Z,32.25
2023-04-15T16:33:09.765Z,31.25
2023-04-15T16:35:38.180Z,31.75
2023-04-15T16:38:07.355Z,32.75
2023-04-15T16:40:35.906Z,33.25
2023-04-15T16:43:05.714Z,34.00
2023-04-15T16:45:34.244Z,34.00
2023-04-15T16:48:02.646Z,32.50
2023-04-15T16:50:31.241Z,33.25
2023-04-15T16:52:59.669Z,33.75
2023-04-15T16:55:28.512Z,27.25
2023-04-15T16:58:02.418Z,30.25
2023-04-15T17:00:33.035Z,30.75
2023-04-15T17:03:05.035Z,30.75
2023-04-15T17:05:33.541Z,31.25
2023-04-15T17:08:02.020Z,31.25
2023-04-15T17:10:31.662Z,29.25
2023-04-15T17:13:00.793Z,26.75
2023-04-15T17:15:29.363Z,27.25
2023-04-15T17:17:57.818Z,27.50
2023-04-15T17:20:27.474Z,32.25
2023-04-15T17:22:55.956Z,28.50
2023-04-15T17:25:24.813Z,28.75
2023-04-15T17:27:53.169Z,29.25
2023-04-15T17:30:23.104Z,27.00
2023-04-15T17:32:53.626Z,28.00
2023-04-15T17:35:22.418Z,27.00
2023-04-15T17:37:50.762Z,30.00
2023-04-15T17:40:19.250Z,29.00
2023-04-15T17:42:48.212Z,30.75
2023-04-15T17:45:16.782Z,28.25
2023-04-15T17:47:45.327Z,29.50
2023-04-15T17:50:13.729Z,27.75
2023-04-15T17:52:42.381Z,30.25
2023-04-15T17:55:10.961Z,31.25
2023-04-15T17:57:39.301Z,28.00
2023-04-15T18:00:11.684Z,28.25
2023-04-15T18:02:40.567Z,28.25
2023-04-15T18:05:10.069Z,27.25
2023-04-15T18:07:38.533Z,30.00
2023-04-15T18:10:11.148Z,26.50
2023-04-15T18:12:39.565Z,26.75
2023-04-15T18:15:10.394Z,27.75
2023-04-15T18:17:38.891Z,27.25
2023-04-15T18:20:08.077Z,27.75
2023-04-15T18:22:36.690Z,29.75
2023-04-15T18:25:05.980Z,28.50
2023-04-15T18:27:35.578Z,28.50
2023-04-15T18:30:03.978Z,29.50
2023-04-15T18:32:33.601Z,23.25
2023-04-15T18:35:02.147Z,28.50
2023-04-15T18:37:30.687Z,29.25
2023-04-15T18:39:59.528Z,29.00
2023-04-15T18:42:27.997Z,29.25
2023-04-15T18:44:56.838Z,30.25
2023-04-15T18:47:27.294Z,29.00
2023-04-15T18:49:55.748Z,28.00
2023-04-15T18:52:24.173Z,27.50
2023-04-15T18:54:52.490Z,28.75
2023-04-15T18:57:25.031Z,27.50
2023-04-15T18:59:59.603Z,25.75
2023-04-15T19:02:28.041Z,27.25
2023-04-15T19:04:56.721Z,27.00
2023-04-15T19:07:25.187Z,28.00
2023-04-15T19:09:54.490Z,23.00
2023-04-15T19:12:22.889Z,24.75
2023-04-15T19:14:51.716Z,27.75
2023-04-15T19:17:20.111Z,24.50
2023-04-15T19:19:48.510Z,24.25
2023-04-15T19:22:17.673Z,23.00
2023-04-15T19:24:46.846Z,24.00
2023-04-15T19:27:15.351Z,18.25
2023-04-15T19:29:43.834Z,23.75
2023-04-15T19:32:12.184Z,22.50
2023-04-15T19:34:40.528Z,21.75
2023-04-15T19:37:08.970Z,20.75
2023-04-15T19:39:37.422Z,23.00
2023-04-15T19:42:05.876Z,23.00
2023-04-15T19:44:34.300Z,22.25
2023-04-15T19:47:02.651Z,22.00
2023-04-15T19:49:32.360Z,22.50
2023-04-15T19:52:00.720Z,21.75
2023-04-15T19:54:29.062Z,23.00
2023-04-15T19:56:57.486Z,21.25
2023-04-15T19:59:25.924Z,18.00
2023-04-15T20:01:54.602Z,20.25
2023-04-15T20:04:23.627Z,19.00
2023-04-15T20:06:51.988Z,21.25
2023-04-15T20:09:20.310Z,20.00
2023-04-15T20:12:48.354Z,19.00
2023-04-15T20:14:37.371Z,19.00
2023-04-15T20:17:05.836Z,20.25
2023-04-15T20:19:34.293Z,21.25
2023-04-15T20:22:02.733Z,18.00
2023-04-15T20:24:31.227Z,15.25
2023-04-15T20:26:59.563Z,19.00
2023-04-15T20:29:28.652Z,17.25
2023-04-15T20:31:57.314Z,21.75
2023-04-15T20:34:25.647Z,18.25
2023-04-15T20:36:53.982Z,18.50
2023-04-15T20:39:22.510Z,18.75
2023-04-15T20:41:51.690Z,21.25
2023-04-15T20:44:20.037Z,18.25
2023-04-15T20:46:48.377Z,20.25
2023-04-15T20:49:16.867Z,19.75
2023-04-15T20:51:45.198Z,17.00
2023-04-15T20:54:13.564Z,18.25
2023-04-15T20:56:42.026Z,19.25
2023-04-15T20:59:10.338Z,16.00
2023-04-15T21:01:38.775Z,19.25
2023-04-15T21:04:07.255Z,16.75
2023-04-15T21:06:36.411Z,17.25
2023-04-15T21:09:05.133Z,18.75
2023-04-15T21:11:53.399Z,16.00
2023-04-15T21:14:22.162Z,17.25
2023-04-15T21:16:50.617Z,18.25
2023-04-15T21:19:18.979Z,17.75
2023-04-15T21:21:47.390Z,15.50
2023-04-15T21:24:15.783Z,18.75
2023-04-15T21:26:44.156Z,19.75
2023-04-15T21:29:12.982Z,16.75
2023-04-15T21:31:41.775Z,15.00
2023-04-15T21:34:10.806Z,18.50
2023-04-15T21:36:39.778Z,15.00
2023-04-15T21:39:08.326Z,16.75
2023-04-15T21:41:40.368Z,19.50
2023-04-15T21:44:08.702Z,15.00
2023-04-15T21:46:37.220Z,15.50
2023-04-15T21:49:08.033Z,16.75
2023-04-15T21:51:36.512Z,16.75
2023-04-15T21:54:04.948Z,17.25
2023-04-15T21:56:33.714Z,18.00
2023-04-15T21:59:02.084Z,13.75
2023-04-15T22:01:30.610Z,19.75
2023-04-15T22:03:59.161Z,16.50
2023-04-15T22:06:27.979Z,16.00
2023-04-15T22:09:11.335Z,17.25
2023-04-15T22:11:41.223Z,18.25
2023-04-15T22:14:10.133Z,17.00
2023-04-15T22:16:38.663Z,18.50
2023-04-15T22:19:07.590Z,17.25
2023-04-15T22:21:36.449Z,14.75
2023-04-15T22:24:38.141Z,14.75
2023-04-15T22:26:53.237Z,17.50
2023-04-15T22:29:22.921Z,15.50
2023-04-15T22:31:51.368Z,17.75
2023-04-15T22:34:22.365Z,18.25
2023-04-15T22:36:52.184Z,16.25
2023-04-15T22:39:22.047Z,15.50
2023-04-15T22:41:51.306Z,19.25
2023-04-15T22:44:19.652Z,16.25
2023-04-15T22:46:48.036Z,17.50
2023-04-15T22:49:16.488Z,15.00
2023-04-15T22:51:45.111Z,16.25
2023-04-15T22:54:13.486Z,16.00
2023-04-15T22:56:41.816Z,20.00
2023-04-15T22:59:10.334Z,23.50
2023-04-15T23:01:39.229Z,22.00
2023-04-15T23:04:09.063Z,20.25
2023-04-15T23:06:38.485Z,20.25
2023-04-15T23:09:07.662Z,19.25
2023-04-15T23:11:36.316Z,14.75
2023-04-15T23:14:04.718Z,16.75
2023-04-15T23:16:33.144Z,17.25
2023-04-15T23:19:01.523Z,16.00
2023-04-15T23:21:30.054Z,14.50
2023-04-15T23:23:58.438Z,14.25
2023-04-15T23:26:28.292Z,19.25
2023-04-15T23:28:57.460Z,14.75
2023-04-15T23:31:25.909Z,15.50
2023-04-15T23:33:54.289Z,17.25
2023-04-15T23:36:22.838Z,17.75
2023-04-15T23:38:51.164Z,17.50
2023-04-15T23:41:19.531Z,14.50
2023-04-15T23:43:47.867Z,16.25
2023-04-15T23:46:16.445Z,17.50
2023-04-15T23:48:44.830Z,17.75
2023-04-15T23:51:13.183Z,13.75
2023-04-15T23:53:41.722Z,14.75
2023-04-15T23:56:10.279Z,15.25
2023-04-15T23:58:38.715Z,17.50
